CheckWX is a tool to help pilots better visualize weather data.  It is not intended as a substitute for an official pre-flight weather briefing.

22:14:08 UTC

LEAO TAF
Ciudad Real Airport
Ciudad Real, Spain
TAF LEAO 201700Z 2018/2103 07006KT CAVOK

Mar-20@
18:00 UTC

Mar-20 @ 18:00 UTC

Mar-21@
03:00 UTC

Mar-21 @ 03:00 UTC

TAF LEAO 201700Z 2018/2103 07006KT CAVOK
Wind
  • 070° at 6 KTS
Conditions
No significant weather
Cloud Levels
  • No significant clouds